Time;durP1;ratioP1;P1;durP2;ratioP2;P2;SDS_P1;SDS_P2;PMS_P1;PMS_P2;Temp;Humidity;BMP_temperature;BMP_pressure;BME280_temperature;BME280_humidity;BME280_pressure;Samples;Min_cycle;Max_cycle;Signal;HPM_P1;HPM_P2
2023/05/31 00:01:04;;;;;;;9.40;3.80;;;;;;;17.14;58.25;100544.16;1487050;87;21390;-78
2023/05/31 00:03:31;;;;;;;8.03;3.83;;;;;;;17.16;58.76;100551.18;1484358;87;21294;-79
2023/05/31 00:10:39;;;;;;;9.67;3.33;;;;;;;17.12;59.02;100558.23;1407416;92;21474;-80
2023/05/31 00:13:06;;;;;;;15.63;4.60;;;;;;;17.12;58.62;100556.08;1407064;93;21438;-80
2023/05/31 00:15:32;;;;;;;12.90;4.07;;;;;;;17.07;58.83;100547.78;1424370;91;21490;-81
2023/05/31 00:17:58;;;;;;;11.07;3.57;;;;;;;17.05;59.19;100542.61;1425158;91;21292;-81
2023/05/31 00:20:24;;;;;;;12.93;3.93;;;;;;;17.05;58.82;100542.61;1429015;91;21397;-79
2023/05/31 00:22:51;;;;;;;12.33;4.83;;;;;;;17.07;58.77;100545.11;1432257;91;21381;-82
2023/05/31 00:25:17;;;;;;;11.57;4.73;;;;;;;17.04;58.87;100533.45;1426413;91;22755;-79
2023/05/31 00:27:43;;;;;;;6.63;4.10;;;;;;;17.03;59.04;100540.65;1406729;91;22304;-79
2023/05/31 00:30:12;;;;;;;9.30;3.43;;;;;;;17.01;59.21;100544.02;1426867;91;21654;-78
2023/05/31 00:32:38;;;;;;;7.23;3.77;;;;;;;17.02;58.94;100548.33;1428944;91;22434;-81
2023/05/31 00:35:05;;;;;;;7.70;3.90;;;;;;;17.01;58.93;100546.69;1433147;91;21395;-79
2023/05/31 00:37:36;;;;;;;20.07;3.73;;;;;;;17.02;58.96;100541.64;1425758;91;21601;-80
2023/05/31 00:39:59;;;;;;;9.90;3.90;;;;;;;17.02;59.40;100547.00;1426349;91;21536;-79
2023/05/31 00:42:25;;;;;;;8.63;3.50;;;;;;;17.00;59.15;100541.00;1431535;91;21476;-80
2023/05/31 00:44:52;;;;;;;11.13;5.20;;;;;;;17.02;59.14;100540.31;1427270;91;21558;-81
2023/05/31 00:47:18;;;;;;;7.47;4.07;;;;;;;17.01;59.11;100542.67;1442417;90;22816;-80
2023/05/31 00:49:45;;;;;;;9.73;4.73;;;;;;;17.00;59.14;100543.67;1480999;87;21700;-80
2023/05/31 00:52:11;;;;;;;9.80;3.97;;;;;;;17.00;59.09;100547.68;1478058;87;21310;-80
2023/05/31 00:54:38;;;;;;;10.97;4.50;;;;;;;17.00;59.09;100547.68;1462408;87;21375;-80
2023/05/31 00:57:05;;;;;;;5.20;3.60;;;;;;;16.99;59.42;100548.70;1492902;86;21568;-81
2023/05/31 00:59:31;;;;;;;10.03;3.90;;;;;;;16.97;59.43;100551.24;1438277;90;21502;-79
2023/05/31 01:01:58;;;;;;;11.03;4.00;;;;;;;16.97;59.29;100552.06;1500059;87;22100;-81
2023/05/31 01:04:25;;;;;;;9.73;3.80;;;;;;;16.97;59.28;100549.39;1495707;86;21539;-80
2023/05/31 01:06:51;;;;;;;8.67;4.40;;;;;;;16.97;59.14;100550.73;1486779;87;22351;-81
2023/05/31 01:09:18;;;;;;;7.20;4.03;;;;;;;16.95;59.24;100555.45;1498995;86;21482;-81
2023/05/31 01:12:14;;;;;;;10.77;4.00;;;;;;;16.93;59.40;100552.13;1448170;90;21472;-80
2023/05/31 01:15:10;;;;;;;7.63;4.23;;;;;;;16.94;59.26;100556.45;1496319;87;23225;-80
2023/05/31 01:18:18;;;;;;;8.30;4.43;;;;;;;16.92;59.37;100553.16;1493072;86;21507;-80
2023/05/31 01:20:49;;;;;;;8.60;3.30;;;;;;;16.89;59.29;100550.86;1439455;90;21725;-80
2023/05/31 01:23:37;;;;;;;9.40;3.53;;;;;;;16.85;59.32;100547.70;1493145;87;21368;-80
2023/05/31 01:26:32;;;;;;;11.63;3.77;;;;;;;16.83;59.49;100555.09;1492836;86;21346;-81
2023/05/31 01:29:02;;;;;;;8.23;3.53;;;;;;;16.83;59.42;100554.24;1442229;90;21457;-80
2023/05/31 01:31:32;;;;;;;4.08;3.25;;;;;;;16.76;59.76;100555.98;1492182;87;21419;-77
2023/05/31 01:33:59;;;;;;;15.15;5.53;;;;;;;16.78;59.55;100559.34;1446977;90;21413;-80
2023/05/31 01:36:25;;;;;;;6.83;4.07;;;;;;;16.73;60.00;100555.02;1492608;87;21683;-80
2023/05/31 01:38:52;;;;;;;11.23;4.67;;;;;;;16.69;59.51;100559.39;1491240;86;22388;-81
2023/05/31 01:41:20;;;;;;;12.07;3.60;;;;;;;16.68;59.48;100563.06;1495136;86;21493;-80
2023/05/31 01:43:48;;;;;;;9.20;3.70;;;;;;;16.68;59.91;100563.58;1438817;90;21487;-81
2023/05/31 01:46:17;;;;;;;10.33;3.50;;;;;;;16.65;60.12;100566.10;1492355;87;21397;-79
2023/05/31 01:48:44;;;;;;;9.87;4.10;;;;;;;16.64;59.80;100566.30;1441584;90;21398;-81
2023/05/31 01:51:14;;;;;;;7.77;3.57;;;;;;;16.59;60.09;100564.17;1480782;87;21603;-80
2023/05/31 01:53:42;;;;;;;9.70;3.93;;;;;;;16.58;60.36;100562.52;1439220;90;21383;-81
2023/05/31 01:56:09;;;;;;;6.77;3.93;;;;;;;16.55;60.39;100563.41;1476780;87;21545;-80
2023/05/31 01:58:41;;;;;;;13.07;5.77;;;;;;;16.52;60.17;100565.93;1440895;90;21376;-80
2023/05/31 02:01:11;;;;;;;6.60;2.90;;;;;;;16.50;60.68;100571.12;1492807;87;21352;-80
2023/05/31 02:03:40;;;;;;;12.47;3.67;;;;;;;16.41;60.28;100565.04;1489557;86;21375;-81
2023/05/31 02:06:06;;;;;;;14.97;5.00;;;;;;;16.43;60.95;100565.19;1484819;86;21323;-80
2023/05/31 02:08:33;;;;;;;8.87;3.70;;;;;;;16.44;60.53;100566.01;1492794;86;21469;-79
2023/05/31 02:10:59;;;;;;;8.00;3.90;;;;;;;16.41;60.59;100562.37;1484942;86;21523;-80
2023/05/31 02:13:28;;;;;;;8.50;4.00;;;;;;;16.39;60.76;100572.40;1495252;86;21309;-81
2023/05/31 02:15:55;;;;;;;11.10;3.27;;;;;;;16.38;60.96;100570.75;1497703;86;21456;-82
2023/05/31 02:18:22;;;;;;;11.37;4.30;;;;;;;16.37;60.75;100573.08;1494565;86;21287;-81
2023/05/31 02:20:48;;;;;;;7.17;3.47;;;;;;;16.37;60.56;100575.75;1497237;86;21569;-82
2023/05/31 02:23:14;;;;;;;7.90;3.60;;;;;;;16.32;60.77;100571.48;1485351;86;21382;-83
2023/05/31 02:25:44;;;;;;;8.87;3.57;;;;;;;16.28;60.52;100567.49;1484465;86;22468;-80
2023/05/31 02:28:11;;;;;;;6.83;3.30;;;;;;;16.29;60.83;100570.51;1487743;87;21324;-79
2023/05/31 02:30:38;;;;;;;15.17;4.63;;;;;;;16.28;60.63;100570.16;1418903;90;21383;-81
2023/05/31 02:33:04;;;;;;;6.83;3.53;;;;;;;16.28;60.46;100579.51;1491388;87;21434;-82
2023/05/31 02:35:31;;;;;;;10.27;3.97;;;;;;;16.26;60.28;100577.55;1493434;86;21509;-81
2023/05/31 02:37:57;;;;;;;13.10;4.50;;;;;;;16.26;60.24;100577.04;1441188;89;21391;-81
2023/05/31 02:40:23;;;;;;;10.53;3.50;;;;;;;16.27;60.21;100577.86;1500774;87;22166;-81
2023/05/31 02:42:49;;;;;;;10.50;3.97;;;;;;;16.23;59.79;100578.23;1493227;86;21368;-80
2023/05/31 02:45:16;;;;;;;9.77;4.13;;;;;;;16.24;60.20;100579.87;1491253;87;21486;-82
2023/05/31 02:47:42;;;;;;;5.27;3.60;;;;;;;16.21;60.06;100576.23;1495454;86;21323;-80
2023/05/31 02:50:10;;;;;;;9.83;3.43;;;;;;;16.19;60.33;100579.58;1440933;90;21561;-81
2023/05/31 02:52:37;;;;;;;6.60;3.40;;;;;;;16.18;60.08;100581.94;1481412;87;21369;-80
2023/05/31 02:55:05;;;;;;;7.80;3.47;;;;;;;16.18;60.20;100584.61;1489798;86;21279;-80
2023/05/31 02:57:31;;;;;;;7.50;3.83;;;;;;;16.17;59.93;100580.77;1494716;87;21375;-80
2023/05/31 03:00:10;;;;;;;11.33;4.03;;;;;;;16.16;60.08;100581.79;1474415;87;21345;-82
2023/05/31 03:02:29;;;;;;;7.83;3.70;;;;;;;16.13;59.97;100580.30;1503738;87;21428;-81
2023/05/31 03:04:56;;;;;;;11.13;4.03;;;;;;;16.18;60.34;100585.94;1497454;86;21523;-80
2023/05/31 03:07:23;;;;;;;11.70;3.37;;;;;;;16.16;59.98;100585.28;1447884;89;22255;-83
2023/05/31 03:09:49;;;;;;;11.00;4.50;;;;;;;16.18;59.98;100588.61;1429188;90;21419;-82
2023/05/31 03:12:16;;;;;;;11.40;3.13;;;;;;;16.16;60.10;100585.28;1445303;90;21814;-83
2023/05/31 03:14:42;;;;;;;10.30;3.50;;;;;;;16.16;60.02;100585.28;1502537;87;21404;-82
2023/05/31 03:17:09;;;;;;;5.63;3.63;;;;;;;16.14;60.17;100585.98;1485474;87;21486;-82
2023/05/31 03:19:35;;;;;;;6.80;3.63;;;;;;;16.15;60.25;100584.97;1485848;87;21332;-82
2023/05/31 03:22:01;;;;;;;7.80;3.77;;;;;;;16.12;60.06;100588.00;1445348;90;21636;-82
2023/05/31 03:24:27;;;;;;;11.03;3.33;;;;;;;16.14;60.12;100591.81;1486845;87;21300;-82
2023/05/31 03:26:54;;;;;;;8.43;3.77;;;;;;;16.17;60.10;100600.80;1454170;90;21553;-83
2023/05/31 03:29:21;;;;;;;9.30;4.33;;;;;;;16.13;60.18;100603.00;1499737;87;21228;-82
2023/05/31 03:31:47;;;;;;;11.37;4.70;;;;;;;16.14;60.16;100599.34;1444640;90;21550;-81
2023/05/31 03:34:13;;;;;;;9.90;3.30;;;;;;;16.14;60.15;100599.82;1452863;90;21443;-82
2023/05/31 03:36:39;;;;;;;7.40;3.80;;;;;;;16.17;60.18;100598.98;1444144;90;21384;-82
2023/05/31 03:39:05;;;;;;;10.83;4.07;;;;;;;16.18;60.48;100597.95;1481619;87;22365;-82
2023/05/31 03:41:32;;;;;;;11.57;3.73;;;;;;;16.14;60.03;100590.48;1494581;87;21324;-82
2023/05/31 03:43:58;;;;;;;10.47;3.50;;;;;;;16.16;60.07;100603.15;1488219;87;21265;-82
2023/05/31 03:46:25;;;;;;;7.80;3.17;;;;;;;16.16;60.45;100609.31;1475606;87;22344;-81
2023/05/31 03:48:51;;;;;;;11.63;3.97;;;;;;;16.14;59.74;100598.48;1487538;87;22447;-80
2023/05/31 03:51:17;;;;;;;5.60;2.97;;;;;;;16.17;59.95;100611.00;1489736;87;21913;-81
2023/05/31 03:53:44;;;;;;;16.03;5.13;;;;;;;16.18;59.77;100609.15;1493404;87;21505;-82
2023/05/31 03:56:10;;;;;;;6.93;3.17;;;;;;;16.18;59.98;100615.31;1485875;87;22263;-80
2023/05/31 03:58:36;;;;;;;8.83;3.70;;;;;;;16.19;59.90;100616.96;1444650;90;21457;-80
2023/05/31 04:01:03;;;;;;;7.63;4.20;;;;;;;16.19;59.63;100619.63;1442211;90;21369;-82
2023/05/31 04:03:29;;;;;;;9.23;3.33;;;;;;;16.20;59.72;100619.98;1453803;90;21499;-82
2023/05/31 04:05:55;;;;;;;11.47;4.17;;;;;;;16.23;59.75;100618.80;1490606;87;21382;-81
2023/05/31 04:08:22;;;;;;;9.53;3.83;;;;;;;16.21;59.42;100619.47;1437300;90;22315;-82
2023/05/31 04:10:49;;;;;;;10.80;4.03;;;;;;;16.24;59.57;100617.77;1489993;87;21560;-80
2023/05/31 04:13:15;;;;;;;11.87;4.07;;;;;;;16.24;59.56;100619.11;1492971;87;21404;-81
2023/05/31 04:15:41;;;;;;;10.83;4.37;;;;;;;16.22;59.50;100624.61;1492361;87;21625;-81
2023/05/31 04:18:08;;;;;;;7.67;3.70;;;;;;;16.20;59.45;100618.64;1484107;87;21500;-87
2023/05/31 04:20:35;;;;;;;9.43;3.47;;;;;;;16.21;59.79;100622.97;1490505;87;22226;-87
2023/05/31 04:23:01;;;;;;;5.63;3.80;;;;;;;16.20;59.51;100627.17;1483582;87;21287;-85
2023/05/31 04:25:27;;;;;;;7.07;3.70;;;;;;;16.20;59.46;100629.33;1488791;87;21353;-86
2023/05/31 04:27:54;;;;;;;10.57;3.63;;;;;;;16.23;59.59;100634.30;1438622;90;21614;-87
2023/05/31 04:30:23;;;;;;;7.97;3.27;;;;;;;16.24;59.59;100637.80;1476749;87;21413;-86
2023/05/31 04:32:51;;;;;;;16.70;3.80;;;;;;;16.28;59.83;100639.09;1424246;90;21332;-85
2023/05/31 04:35:17;;;;;;;8.70;3.13;;;;;;;16.34;59.72;100644.22;1450016;90;21576;-86
2023/05/31 04:37:43;;;;;;;6.30;3.80;;;;;;;16.41;59.40;100635.83;1442724;90;21428;-86
2023/05/31 04:40:11;;;;;;;12.43;4.00;;;;;;;16.47;59.42;100639.11;1466557;87;21479;-86
2023/05/31 04:42:38;;;;;;;11.23;3.80;;;;;;;16.51;58.86;100641.73;1490011;87;21457;-85
2023/05/31 04:45:06;;;;;;;8.87;3.27;;;;;;;16.53;58.40;100645.06;1490825;87;21523;-86
2023/05/31 04:47:33;;;;;;;14.63;3.70;;;;;;;16.57;58.94;100647.71;1441992;90;21523;-86
2023/05/31 04:50:00;;;;;;;7.43;3.70;;;;;;;16.57;58.79;100645.04;1484951;87;22240;-86
2023/05/31 04:52:31;;;;;;;7.50;3.33;;;;;;;16.55;58.70;100643.55;1474117;87;21552;-86
2023/05/31 04:54:59;;;;;;;16.53;3.93;;;;;;;16.58;58.58;100657.37;1442427;90;21584;-86
2023/05/31 04:57:28;;;;;;;12.53;3.53;;;;;;;16.58;58.90;100648.02;1490354;87;21279;-90
2023/05/31 04:59:58;;;;;;;10.17;3.83;;;;;;;16.56;58.71;100650.03;1482008;87;21494;-86
2023/05/31 05:02:26;;;;;;;8.18;3.60;;;;;;;16.55;58.59;100660.41;1488578;87;22269;-86
2023/05/31 05:04:53;;;;;;;8.00;3.50;;;;;;;16.54;58.79;100656.56;1485344;87;21519;-88
2023/05/31 05:07:20;;;;;;;5.97;3.23;;;;;;;16.53;58.74;100665.09;1442496;90;22339;-89
2023/05/31 05:09:47;;;;;;;16.33;4.20;;;;;;;16.49;59.22;100669.16;1488825;87;21516;-86
2023/05/31 05:12:13;;;;;;;13.47;3.90;;;;;;;16.48;58.61;100671.48;1441435;90;21443;-86
2023/05/31 05:14:39;;;;;;;13.97;4.20;;;;;;;16.50;58.68;100670.80;1448538;90;22360;-86
2023/05/31 05:17:06;;;;;;;14.67;3.53;;;;;;;16.51;59.00;100671.11;1441147;90;21479;-87
2023/05/31 05:19:32;;;;;;;7.67;3.40;;;;;;;16.53;58.87;100677.12;1450288;90;22251;-87
2023/05/31 05:21:58;;;;;;;10.20;3.07;;;;;;;16.52;58.52;100671.46;1447744;90;22375;-85
2023/05/31 05:24:26;;;;;;;9.17;2.90;;;;;;;16.54;58.55;100678.77;1489847;87;21456;-86
2023/05/31 05:26:52;;;;;;;7.57;3.10;;;;;;;16.57;58.67;100675.77;1496365;86;21537;-87
2023/05/31 05:29:18;;;;;;;11.47;3.33;;;;;;;16.66;58.55;100675.19;1498490;86;21346;-86
2023/05/31 05:31:44;;;;;;;8.97;3.20;;;;;;;16.75;58.25;100677.27;1496538;86;22713;-87
2023/05/31 05:34:10;;;;;;;12.10;3.80;;;;;;;16.88;57.50;100676.15;1490958;86;21375;-86
2023/05/31 05:36:37;;;;;;;13.47;3.20;;;;;;;17.02;56.52;100676.67;1491272;86;21390;-86
2023/05/31 05:39:05;;;;;;;8.57;3.70;;;;;;;17.19;56.93;100677.84;1497422;87;21354;-86
2023/05/31 05:41:31;;;;;;;7.67;4.37;;;;;;;17.33;56.00;100677.00;1454019;90;21456;-86
2023/05/31 05:43:58;;;;;;;8.83;3.13;;;;;;;17.48;56.09;100675.64;1487569;87;22416;-88
2023/05/31 05:46:25;;;;;;;12.03;3.20;;;;;;;17.59;55.45;100684.02;1487859;87;21396;-85
2023/05/31 05:48:51;;;;;;;11.37;3.13;;;;;;;17.69;54.59;100679.70;1493834;86;21353;-86
2023/05/31 05:51:17;;;;;;;7.03;3.43;;;;;;;17.76;54.45;100679.80;1493848;86;22594;-86
2023/05/31 05:53:43;;;;;;;17.63;4.73;;;;;;;17.89;54.39;100677.80;1489216;86;22476;-85
2023/05/31 05:56:11;;;;;;;11.33;3.40;;;;;;;18.05;54.70;100686.94;1497297;86;21398;-85
2023/05/31 05:58:37;;;;;;;11.33;4.23;;;;;;;18.11;53.65;100687.52;1444216;90;21554;-86
2023/05/31 06:01:04;;;;;;;8.33;3.70;;;;;;;18.22;54.08;100691.55;1428561;90;22419;-85
2023/05/31 06:03:30;;;;;;;7.83;3.70;;;;;;;18.33;53.92;100689.70;1490672;87;21456;-87
2023/05/31 06:05:56;;;;;;;12.17;3.90;;;;;;;18.39;53.11;100696.96;1475780;87;22347;-87
2023/05/31 06:08:23;;;;;;;6.53;2.87;;;;;;;18.39;52.88;100692.94;1493286;87;21367;-87
2023/05/31 06:10:49;;;;;;;11.63;3.10;;;;;;;18.30;51.84;100691.42;1495444;87;21417;-88
2023/05/31 06:13:15;;;;;;;10.87;3.63;;;;;;;18.30;52.45;100694.09;1495508;86;21511;-85
2023/05/31 06:15:42;;;;;;;8.00;3.27;;;;;;;18.30;52.91;100692.76;1498567;86;21367;-87
2023/05/31 06:18:09;;;;;;;7.67;3.37;;;;;;;18.31;53.34;100689.56;1487280;86;21432;-86
2023/05/31 06:20:35;;;;;;;10.37;2.97;;;;;;;18.29;53.03;100691.08;1487434;87;22235;-87
2023/05/31 06:23:02;;;;;;;9.33;3.53;;;;;;;18.28;52.78;100695.31;1495937;86;21345;-86
2023/05/31 06:25:28;;;;;;;8.03;3.47;;;;;;;18.28;52.74;100693.45;1494065;87;22210;-87
2023/05/31 06:27:57;;;;;;;10.63;2.97;;;;;;;18.34;53.23;100690.00;1492679;86;21515;-87
2023/05/31 06:32:57;;;;;;;5.90;2.93;;;;;;;18.82;51.92;100683.53;1528246;83;25604;-85
2023/05/31 06:35:24;;;;;;;12.13;2.93;;;;;;;19.07;50.05;100692.45;1517396;86;21468;-87
2023/05/31 06:40:38;;;;;;;7.70;3.13;;;;;;;19.49;48.75;100690.10;1507173;85;21677;-84
2023/05/31 06:43:04;;;;;;;7.55;2.70;;;;;;;19.76;49.63;100696.42;1507309;85;21455;-87
2023/05/31 06:45:30;;;;;;;7.78;3.20;;;;;;;19.88;47.15;100695.84;1504932;85;21551;-85
2023/05/31 06:47:56;;;;;;;8.13;2.95;;;;;;;19.98;46.91;100694.95;1510048;86;21454;-86
2023/05/31 06:50:22;;;;;;;12.13;3.08;;;;;;;20.11;47.24;100696.34;1505382;85;22571;-86
2023/05/31 06:52:48;;;;;;;9.20;3.35;;;;;;;20.28;47.17;100697.61;1496794;86;21521;-86
2023/05/31 06:55:15;;;;;;;6.92;2.80;;;;;;;20.36;46.58;100707.31;1503673;86;21440;-86
2023/05/31 06:57:41;;;;;;;6.37;3.02;;;;;;;20.38;45.41;100711.16;1508637;85;22424;-86
2023/05/31 07:00:08;;;;;;;14.65;3.62;;;;;;;20.46;46.67;100698.34;1481717;85;21359;-86
2023/05/31 07:02:36;;;;;;;9.38;2.72;;;;;;;20.50;45.04;100704.95;1514610;83;21577;-86
2023/05/31 07:05:03;;;;;;;9.50;3.55;;;;;;;20.76;46.78;100703.85;1506992;83;21465;-87
2023/05/31 07:07:29;;;;;;;7.35;3.50;;;;;;;20.88;45.78;100706.21;1505624;83;21809;-87
2023/05/31 07:09:55;;;;;;;12.07;3.30;;;;;;;21.00;45.50;100703.19;1502753;86;22333;-89
2023/05/31 07:12:21;;;;;;;7.08;2.85;;;;;;;21.09;45.24;100699.27;1494217;86;21406;-87
2023/05/31 07:14:50;;;;;;;12.73;3.42;;;;;;;21.13;44.23;100692.94;1494694;86;21491;-86
2023/05/31 07:17:16;;;;;;;18.57;3.67;;;;;;;21.23;44.55;100700.03;1528208;83;21498;-87
2023/05/31 07:19:49;;;;;;;7.20;2.80;;;;;;;21.34;44.97;100699.39;1513724;83;21564;-85
2023/05/31 07:22:17;;;;;;;10.13;3.25;;;;;;;21.34;43.21;100699.91;1507270;83;21538;-86
2023/05/31 07:24:44;;;;;;;4.97;2.77;;;;;;;21.45;44.25;100701.16;1492075;86;21433;-87
2023/05/31 07:27:10;;;;;;;6.17;3.47;;;;;;;21.50;43.73;100702.17;1509778;83;22311;-87
2023/05/31 07:29:37;;;;;;;9.68;3.25;;;;;;;21.70;44.31;100709.36;1516877;83;21506;-85
2023/05/31 07:32:03;;;;;;;5.62;2.50;;;;;;;21.74;43.37;100703.31;1507877;83;21597;-86
2023/05/31 07:34:30;;;;;;;12.10;7.25;;;;;;;21.86;42.94;100698.89;1505217;83;21441;-87
2023/05/31 07:36:57;;;;;;;7.60;3.92;;;;;;;21.98;43.22;100693.67;1507399;84;21573;-86
2023/05/31 07:39:23;;;;;;;6.03;3.20;;;;;;;22.15;41.80;100691.79;1505653;84;22673;-87
2023/05/31 07:41:50;;;;;;;5.97;3.45;;;;;;;22.15;41.80;100691.79;1507212;83;21505;-86
2023/05/31 07:44:28;;;;;;;9.38;2.95;;;;;;;22.31;41.95;100695.34;1500254;83;22313;-86
2023/05/31 07:46:58;;;;;;;10.32;3.25;;;;;;;22.49;42.61;100698.09;1498635;83;22020;-87
2023/05/31 07:49:24;;;;;;;6.37;3.42;;;;;;;22.64;41.62;100688.85;1513257;83;22993;-85
2023/05/31 07:51:54;;;;;;;6.78;3.37;;;;;;;22.75;41.41;100692.19;1501117;83;23476;-87
2023/05/31 07:54:26;;;;;;;9.20;4.17;;;;;;;22.83;40.50;100685.16;1505219;84;21455;-85
2023/05/31 07:56:48;;;;;;;9.25;3.58;;;;;;;22.93;41.56;100681.44;1499914;83;22216;-87
2023/05/31 07:59:21;;;;;;;9.60;3.22;;;;;;;22.68;39.92;100681.98;1416997;86;22358;-87
2023/05/31 08:01:48;;;;;;;13.70;3.80;;;;;;;22.77;41.20;100677.95;1582870;84;21339;-87
2023/05/31 08:04:14;;;;;;;10.43;3.33;;;;;;;22.97;41.63;100689.41;1423805;86;22300;-87
2023/05/31 08:06:41;;;;;;;9.25;3.85;;;;;;;23.08;40.72;100687.03;1421528;87;21329;-86
2023/05/31 08:09:08;;;;;;;4.70;3.70;;;;;;;23.18;41.11;100680.05;1377143;89;21397;-86
2023/05/31 08:11:35;;;;;;;6.30;3.02;;;;;;;23.31;40.42;100673.69;1443723;87;21471;-87
2023/05/31 08:14:03;;;;;;;11.68;3.85;;;;;;;23.30;39.89;100672.02;1456454;87;22350;-86
2023/05/31 08:16:31;;;;;;;123.02;23.35;;;;;;;23.36;40.44;100677.89;1368750;89;22331;-85
2023/05/31 08:18:57;;;;;;;8.33;3.08;;;;;;;23.51;40.86;100674.80;1376429;90;22197;-80
2023/05/31 08:21:23;;;;;;;6.42;3.45;;;;;;;23.47;39.25;100676.81;1527221;89;21503;-81
2023/05/31 08:23:50;;;;;;;6.08;3.52;;;;;;;23.62;39.70;100674.53;1411959;87;21480;-81
2023/05/31 08:26:17;;;;;;;12.82;3.55;;;;;;;23.62;38.68;100675.89;1410114;86;21391;-79
2023/05/31 08:28:44;;;;;;;11.70;3.45;;;;;;;23.82;39.57;100672.45;1571719;87;21360;-80
2023/05/31 08:31:10;;;;;;;9.95;3.83;;;;;;;23.98;39.00;100680.95;1416978;86;21353;-79
2023/05/31 08:33:36;;;;;;;12.20;2.75;;;;;;;24.04;38.63;100673.27;1572901;86;22464;-82
2023/05/31 08:36:04;;;;;;;7.30;3.62;;;;;;;24.15;37.54;100673.84;1412387;86;22461;-81
2023/05/31 08:38:31;;;;;;;5.17;2.80;;;;;;;24.35;38.63;100678.94;1409684;87;21443;-80
2023/05/31 08:41:02;;;;;;;12.03;4.15;;;;;;;24.57;39.15;100675.19;1415903;86;21481;-80
2023/05/31 08:43:28;;;;;;;8.73;3.02;;;;;;;24.69;38.22;100680.06;1570870;86;21279;-80
2023/05/31 08:45:55;;;;;;;7.30;3.27;;;;;;;24.87;38.14;100681.02;1409040;87;21345;-81
2023/05/31 08:48:30;;;;;;;9.10;3.50;;;;;;;24.95;37.89;100678.77;1477035;86;21940;-81
2023/05/31 08:50:58;;;;;;;7.12;3.20;;;;;;;25.11;37.84;100684.52;1487105;86;22210;-83
2023/05/31 08:53:25;;;;;;;12.15;3.50;;;;;;;25.09;36.08;100676.64;1442542;89;22427;-87
2023/05/31 08:55:53;;;;;;;4.28;3.20;;;;;;;25.01;36.54;100678.36;1454173;87;21664;-85
2023/05/31 08:58:20;;;;;;;9.98;3.52;;;;;;;24.74;35.41;100673.94;1449853;87;21560;-87
2023/05/31 09:00:48;;;;;;;11.83;3.77;;;;;;;24.59;36.71;100676.29;1457858;87;21515;-87
2023/05/31 09:03:14;;;;;;;5.67;3.40;;;;;;;24.67;36.82;100673.24;1484718;86;21422;-86
2023/05/31 09:05:41;;;;;;;10.35;3.60;;;;;;;24.76;36.94;100673.18;1479092;86;21360;-86
2023/05/31 09:08:07;;;;;;;8.35;3.62;;;;;;;25.00;37.51;100675.33;1487142;86;21472;-80
2023/05/31 09:10:33;;;;;;;8.10;3.40;;;;;;;25.20;37.29;100675.84;1486601;86;21451;-86
2023/05/31 09:13:02;;;;;;;5.75;3.15;;;;;;;25.40;37.58;100677.30;1483766;86;22617;-82
2023/05/31 09:15:30;;;;;;;6.47;3.50;;;;;;;25.50;36.58;100672.10;1487910;86;22299;-83
2023/05/31 09:17:57;;;;;;;11.38;3.72;;;;;;;25.62;35.99;100667.99;1473893;87;21443;-83
2023/05/31 09:20:48;;;;;;;7.78;3.40;;;;;;;25.74;36.56;100663.34;1500353;86;21456;-84
2023/05/31 09:23:29;;;;;;;5.70;3.05;;;;;;;25.69;35.98;100670.55;1449212;89;22778;-85
2023/05/31 09:25:55;;;;;;;10.38;3.25;;;;;;;25.75;35.16;100669.58;1449071;89;22557;-85
2023/05/31 09:28:24;;;;;;;7.15;3.52;;;;;;;25.63;35.49;100661.50;1410024;92;21458;-83
2023/05/31 09:31:07;;;;;;;6.25;3.85;;;;;;;25.34;35.33;100662.83;1413508;91;21523;-84
2023/05/31 09:33:47;;;;;;;13.70;4.12;;;;;;;25.22;35.61;100660.69;1377713;89;21377;-85
2023/05/31 09:36:30;;;;;;;11.20;3.02;;;;;;;25.36;36.14;100660.70;1523175;89;21311;-86
2023/05/31 09:39:07;;;;;;;10.03;3.62;;;;;;;25.57;35.76;100659.22;1489876;89;21376;-84
2023/05/31 09:41:34;;;;;;;12.43;3.62;;;;;;;25.64;36.05;100658.56;1451948;89;22379;-86
2023/05/31 09:44:00;;;;;;;10.68;2.80;;;;;;;25.80;35.63;100652.88;1436283;89;21471;-85
2023/05/31 09:46:27;;;;;;;5.15;2.80;;;;;;;25.88;35.24;100655.77;1452735;89;21590;-85
2023/05/31 09:49:10;;;;;;;7.05;2.87;;;;;;;26.03;35.29;100653.86;1450322;89;22485;-84
2023/05/31 09:51:36;;;;;;;5.75;3.60;;;;;;;26.09;35.41;100646.91;1438721;89;22529;-85
2023/05/31 09:54:13;;;;;;;10.75;3.08;;;;;;;26.18;35.23;100656.86;1453079;89;21524;-84
2023/05/31 09:56:41;;;;;;;6.95;3.62;;;;;;;26.16;33.82;100652.74;1449863;89;21465;-85
2023/05/31 09:59:08;;;;;;;6.85;3.30;;;;;;;26.11;34.79;100647.50;1379927;90;21537;-84
2023/05/31 10:01:36;;;;;;;5.78;2.87;;;;;;;25.91;34.31;100639.02;1533658;89;21355;-85
2023/05/31 10:04:05;;;;;;;8.35;3.02;;;;;;;25.94;35.46;100641.77;1523888;89;21360;-85
2023/05/31 10:06:36;;;;;;;7.87;3.77;;;;;;;26.13;35.02;100647.81;1369196;90;21383;-85
2023/05/31 10:09:06;;;;;;;8.25;3.30;;;;;;;25.85;33.17;100642.70;1376224;89;22487;-84
2023/05/31 10:11:36;;;;;;;4.87;3.30;;;;;;;26.05;34.67;100640.34;1374828;89;21355;-84
2023/05/31 10:14:15;;;;;;;8.78;3.58;;;;;;;26.20;34.54;100634.89;1386616;89;21524;-84
2023/05/31 10:16:48;;;;;;;4.80;3.10;;;;;;;26.18;35.27;100632.95;1394677;93;21493;-85
2023/05/31 10:19:20;;;;;;;15.23;3.85;;;;;;;26.42;35.03;100630.37;1397148;92;21678;-82
2023/05/31 10:21:48;;;;;;;5.95;3.45;;;;;;;26.64;35.17;100629.63;1416796;92;21457;-84
2023/05/31 10:24:31;;;;;;;13.70;4.03;;;;;;;26.97;34.78;100630.11;1449672;89;21738;-85
2023/05/31 10:27:05;;;;;;;7.00;2.98;;;;;;;27.08;34.04;100620.20;1445422;89;21484;-84
2023/05/31 10:29:45;;;;;;;7.28;3.55;;;;;;;27.05;33.73;100619.34;1432385;90;21443;-84
2023/05/31 10:32:21;;;;;;;10.50;3.80;;;;;;;27.12;33.82;100615.35;1441911;90;21522;-84
2023/05/31 10:34:49;;;;;;;7.47;3.72;;;;;;;27.31;34.09;100618.61;1441991;89;21501;-85
2023/05/31 10:37:15;;;;;;;7.80;3.50;;;;;;;27.43;32.52;100628.80;1448731;89;21509;-83
2023/05/31 10:40:05;;;;;;;11.95;3.72;;;;;;;27.61;33.63;100620.02;1429667;90;21630;-84
2023/05/31 10:42:44;;;;;;;13.68;4.03;;;;;;;27.56;32.20;100620.77;1448101;89;21551;-84
2023/05/31 10:45:26;;;;;;;12.18;3.15;;;;;;;27.33;32.17;100619.16;1452056;89;22396;-84
2023/05/31 10:48:26;;;;;;;10.00;3.72;;;;;;;27.47;33.38;100621.48;1449161;89;21530;-83
2023/05/31 10:50:58;;;;;;;10.35;3.58;;;;;;;27.70;33.94;100618.47;1452257;89;21443;-84
2023/05/31 10:53:31;;;;;;;11.12;3.10;;;;;;;27.67;32.47;100619.80;1452044;89;21479;-84
2023/05/31 10:56:07;;;;;;;11.73;3.50;;;;;;;27.59;32.04;100618.08;1428708;91;22417;-82
2023/05/31 10:58:55;;;;;;;6.67;3.75;;;;;;;27.39;31.53;100616.80;1407054;93;22691;-85
2023/05/31 11:01:20;;;;;;;8.10;3.00;;;;;;;27.38;31.45;100613.78;1405712;93;21666;-85
2023/05/31 11:03:55;;;;;;;4.05;2.80;;;;;;;27.44;32.39;100616.84;1403598;93;22432;-82
2023/05/31 11:06:28;;;;;;;8.28;3.62;;;;;;;27.62;32.94;100608.05;1411799;93;21732;-80
2023/05/31 11:09:17;;;;;;;10.72;3.37;;;;;;;27.47;31.08;100595.67;1410624;92;21639;-82
2023/05/31 11:11:49;;;;;;;5.70;3.00;;;;;;;27.33;31.56;100602.85;1406757;93;21597;-80
2023/05/31 11:14:29;;;;;;;4.62;3.12;;;;;;;27.43;32.47;100607.05;1407102;93;21471;-81
2023/05/31 11:17:04;;;;;;;12.15;3.98;;;;;;;27.38;31.35;100598.02;1481097;92;22410;-81
2023/05/31 11:19:32;;;;;;;5.92;3.20;;;;;;;27.38;32.11;100593.41;1409505;93;21471;-82
2023/05/31 11:22:15;;;;;;;5.08;3.02;;;;;;;27.47;31.42;100588.88;1409299;92;21619;-80
2023/05/31 11:24:54;;;;;;;5.40;3.42;;;;;;;27.23;31.11;100587.80;1407272;91;21530;-81
2023/05/31 11:27:22;;;;;;;8.97;3.57;;;;;;;27.24;31.68;100589.44;1481171;92;21384;-79
2023/05/31 11:29:55;;;;;;;7.55;3.00;;;;;;;27.39;32.25;100580.63;1337054;92;23153;-82
2023/05/31 11:32:38;;;;;;;8.68;2.85;;;;;;;27.47;31.35;100582.08;1386332;92;21412;-85
2023/05/31 11:35:08;;;;;;;9.30;4.10;;;;;;;27.43;31.35;100583.14;1480514;93;21443;-80
2023/05/31 11:37:38;;;;;;;8.25;3.12;;;;;;;27.40;31.47;100575.50;1367302;93;21704;-80
2023/05/31 11:40:12;;;;;;;7.37;3.90;;;;;;;27.25;31.58;100578.03;1409252;93;21478;-83